sensor_id;sensor_type;location;lat;lon;timestamp;pressure;altitude;pressure_sealevel;temperature;humidity
71915;BME280;60387;49.994;14.660;2023-01-28T00:00:49;98230.88;;;3.86;64.57
71915;BME280;60387;49.994;14.660;2023-01-28T00:03:22;98224.22;;;3.89;64.40
71915;BME280;60387;49.994;14.660;2023-01-28T00:06:08;98220.78;;;3.93;64.63
71915;BME280;60387;49.994;14.660;2023-01-28T00:08:41;98222.66;;;3.93;64.37
71915;BME280;60387;49.994;14.660;2023-01-28T00:11:15;98209.75;;;3.90;64.29
71915;BME280;60387;49.994;14.660;2023-01-28T00:13:52;98216.50;;;3.92;64.11
71915;BME280;60387;49.994;14.660;2023-01-28T00:16:27;98220.78;;;3.93;64.01
71915;BME280;60387;49.994;14.660;2023-01-28T00:19:00;98226.16;;;3.93;64.37
71915;BME280;60387;49.994;14.660;2023-01-28T00:21:33;98214.38;;;3.94;64.30
71915;BME280;60387;49.994;14.660;2023-01-28T00:24:07;98217.78;;;3.90;64.31
71915;BME280;60387;49.994;14.660;2023-01-28T00:26:41;98222.13;;;3.96;64.30
71915;BME280;60387;49.994;14.660;2023-01-28T00:29:14;98223.47;;;3.93;64.24
71915;BME280;60387;49.994;14.660;2023-01-28T00:31:47;98224.53;;;3.92;63.88
71915;BME280;60387;49.994;14.660;2023-01-28T00:34:20;98210.53;;;3.90;64.39
71915;BME280;60387;49.994;14.660;2023-01-28T00:36:54;98223.72;;;3.92;64.24
71915;BME280;60387;49.994;14.660;2023-01-28T00:39:27;98219.41;;;3.91;64.16
71915;BME280;60387;49.994;14.660;2023-01-28T00:42:00;98229.63;;;3.94;64.36
71915;BME280;60387;49.994;14.660;2023-01-28T00:44:34;98222.66;;;3.93;64.19
71915;BME280;60387;49.994;14.660;2023-01-28T00:47:07;98229.38;;;3.95;64.35
71915;BME280;60387;49.994;14.660;2023-01-28T00:49:40;98225.66;;;3.96;64.29
71915;BME280;60387;49.994;14.660;2023-01-28T00:52:13;98226.38;;;3.92;64.44
71915;BME280;60387;49.994;14.660;2023-01-28T00:54:47;98232.81;;;3.91;64.12
71915;BME280;60387;49.994;14.660;2023-01-28T00:57:20;98231.19;;;3.90;64.21
71915;BME280;60387;49.994;14.660;2023-01-28T00:59:53;98228.50;;;3.90;64.38
71915;BME280;60387;49.994;14.660;2023-01-28T01:02:27;98230.38;;;3.89;64.01
71915;BME280;60387;49.994;14.660;2023-01-28T01:05:00;98225.81;;;3.90;64.31
71915;BME280;60387;49.994;14.660;2023-01-28T01:07:33;98235.25;;;3.92;64.37
71915;BME280;60387;49.994;14.660;2023-01-28T01:12:41;98231.19;;;3.90;64.33
71915;BME280;60387;49.994;14.660;2023-01-28T01:15:15;98234.97;;;3.94;64.58
71915;BME280;60387;49.994;14.660;2023-01-28T01:17:49;98234.75;;;3.95;63.84
71915;BME280;60387;49.994;14.660;2023-01-28T01:20:25;98237.97;;;3.97;64.46
71915;BME280;60387;49.994;14.660;2023-01-28T01:22:59;98230.44;;;3.94;64.07
71915;BME280;60387;49.994;14.660;2023-01-28T01:25:32;98240.44;;;3.99;64.11
71915;BME280;60387;49.994;14.660;2023-01-28T01:28:06;98246.84;;;3.98;64.24
71915;BME280;60387;49.994;14.660;2023-01-28T01:30:39;98242.56;;;3.97;64.50
71915;BME280;60387;49.994;14.660;2023-01-28T01:33:12;98240.03;;;3.90;64.45
71915;BME280;60387;49.994;14.660;2023-01-28T01:35:52;98244.09;;;3.93;64.48
71915;BME280;60387;49.994;14.660;2023-01-28T01:38:26;98249.94;;;3.90;64.35
71915;BME280;60387;49.994;14.660;2023-01-28T01:41:00;98260.41;;;3.91;64.42
71915;BME280;60387;49.994;14.660;2023-01-28T01:43:52;98248.88;;;3.91;64.43
71915;BME280;60387;49.994;14.660;2023-01-28T01:46:36;98256.69;;;3.92;64.49
71915;BME280;60387;49.994;14.660;2023-01-28T01:49:19;98251.25;;;3.87;64.33
71915;BME280;60387;49.994;14.660;2023-01-28T01:52:02;98250.19;;;3.88;64.56
71915;BME280;60387;49.994;14.660;2023-01-28T01:54:38;98252.88;;;3.88;64.44
71915;BME280;60387;49.994;14.660;2023-01-28T01:57:15;98257.44;;;3.88;64.07
71915;BME280;60387;49.994;14.660;2023-01-28T01:59:49;98232.34;;;3.77;64.58
71915;BME280;60387;49.994;14.660;2023-01-28T02:02:23;98263.34;;;3.90;64.43
71915;BME280;60387;49.994;14.660;2023-01-28T02:04:56;98249.53;;;3.81;64.60
71915;BME280;60387;49.994;14.660;2023-01-28T02:07:30;98255.22;;;3.85;64.82
71915;BME280;60387;49.994;14.660;2023-01-28T02:10:04;98253.50;;;3.79;64.70
71915;BME280;60387;49.994;14.660;2023-01-28T02:12:44;98254.09;;;3.81;64.76
71915;BME280;60387;49.994;14.660;2023-01-28T02:15:21;98255.72;;;3.82;64.56
71915;BME280;60387;49.994;14.660;2023-01-28T02:17:56;98243.38;;;3.81;64.64
71915;BME280;60387;49.994;14.660;2023-01-28T02:29:14;98248.31;;;3.72;65.08
71915;BME280;60387;49.994;14.660;2023-01-28T02:32:05;98257.84;;;3.80;64.71
71915;BME280;60387;49.994;14.660;2023-01-28T02:34:49;98259.94;;;3.78;64.79
71915;BME280;60387;49.994;14.660;2023-01-28T02:37:26;98251.50;;;3.69;64.88
71915;BME280;60387;49.994;14.660;2023-01-28T02:40:07;98262.59;;;3.78;64.68
71915;BME280;60387;49.994;14.660;2023-01-28T02:42:42;98262.53;;;3.73;64.73
71915;BME280;60387;49.994;14.660;2023-01-28T02:45:24;98263.44;;;3.78;64.86
71915;BME280;60387;49.994;14.660;2023-01-28T02:47:58;98272.25;;;3.79;64.89
71915;BME280;60387;49.994;14.660;2023-01-28T02:50:41;98266.59;;;3.75;64.92
71915;BME280;60387;49.994;14.660;2023-01-28T02:53:29;98266.09;;;3.78;64.62
71915;BME280;60387;49.994;14.660;2023-01-28T02:56:24;98272.03;;;3.80;64.87
71915;BME280;60387;49.994;14.660;2023-01-28T02:59:12;98266.44;;;3.82;64.93
71915;BME280;60387;49.994;14.660;2023-01-28T03:01:52;98257.84;;;3.80;64.57
71915;BME280;60387;49.994;14.660;2023-01-28T03:04:32;98265.69;;;3.86;64.87
71915;BME280;60387;49.994;14.660;2023-01-28T03:07:08;98268.38;;;3.86;64.65
71915;BME280;60387;49.994;14.660;2023-01-28T03:09:44;98264.41;;;3.89;64.73
71915;BME280;60387;49.994;14.660;2023-01-28T03:12:21;98271.38;;;3.90;64.82
71915;BME280;60387;49.994;14.660;2023-01-28T03:15:04;98269.50;;;3.90;64.67
71915;BME280;60387;49.994;14.660;2023-01-28T03:18:08;98264.97;;;3.91;64.78
71915;BME280;60387;49.994;14.660;2023-01-28T03:20:48;98265.75;;;3.91;64.61
71915;BME280;60387;49.994;14.660;2023-01-28T03:23:35;98259.03;;;3.89;64.55
71915;BME280;60387;49.994;14.660;2023-01-28T03:26:10;98268.94;;;3.88;64.76
71915;BME280;60387;49.994;14.660;2023-01-28T03:28:45;98275.34;;;3.87;64.84
71915;BME280;60387;49.994;14.660;2023-01-28T03:31:21;98268.63;;;3.85;64.56
71915;BME280;60387;49.994;14.660;2023-01-28T03:33:56;98269.44;;;3.85;64.40
71915;BME280;60387;49.994;14.660;2023-01-28T03:36:30;98275.84;;;3.84;65.14
71915;BME280;60387;49.994;14.660;2023-01-28T03:39:04;98269.16;;;3.87;64.68
71915;BME280;60387;49.994;14.660;2023-01-28T03:41:38;98264.00;;;3.80;64.79
71915;BME280;60387;49.994;14.660;2023-01-28T03:44:11;98262.69;;;3.83;64.59
71915;BME280;60387;49.994;14.660;2023-01-28T03:46:44;98270.63;;;3.78;64.72
71915;BME280;60387;49.994;14.660;2023-01-28T03:49:18;98270.72;;;3.83;64.63
71915;BME280;60387;49.994;14.660;2023-01-28T03:51:51;98279.84;;;3.82;64.79
71915;BME280;60387;49.994;14.660;2023-01-28T03:54:25;98278.22;;;3.81;64.83
71915;BME280;60387;49.994;14.660;2023-01-28T03:56:58;98279.84;;;3.82;64.67
71915;BME280;60387;49.994;14.660;2023-01-28T03:59:32;98281.22;;;3.84;64.64
71915;BME280;60387;49.994;14.660;2023-01-28T04:02:06;98289.81;;;3.86;64.93
71915;BME280;60387;49.994;14.660;2023-01-28T04:04:40;98280.38;;;3.84;64.88
71915;BME280;60387;49.994;14.660;2023-01-28T04:07:14;98281.69;;;3.81;64.85
71915;BME280;60387;49.994;14.660;2023-01-28T04:09:47;98276.16;;;3.71;64.76
71915;BME280;60387;49.994;14.660;2023-01-28T04:12:20;98278.69;;;3.78;64.75
71915;BME280;60387;49.994;14.660;2023-01-28T04:14:54;98274.38;;;3.77;64.46
71915;BME280;60387;49.994;14.660;2023-01-28T04:17:27;98286.56;;;3.84;65.08
71915;BME280;60387;49.994;14.660;2023-01-28T04:20:00;98280.38;;;3.84;64.79
71915;BME280;60387;49.994;14.660;2023-01-28T04:22:34;98282.84;;;3.85;64.65
71915;BME280;60387;49.994;14.660;2023-01-28T04:25:07;98287.03;;;3.81;64.96
71915;BME280;60387;49.994;14.660;2023-01-28T04:27:41;98286.38;;;3.74;64.71
71915;BME280;60387;49.994;14.660;2023-01-28T04:30:14;98285.03;;;3.72;65.04
71915;BME280;60387;49.994;14.660;2023-01-28T04:32:48;98279.09;;;3.70;65.32
71915;BME280;60387;49.994;14.660;2023-01-28T04:35:21;98281.75;;;3.70;65.09
71915;BME280;60387;49.994;14.660;2023-01-28T04:37:54;98290.13;;;3.73;65.07
71915;BME280;60387;49.994;14.660;2023-01-28T04:40:28;98291.50;;;3.76;65.12
71915;BME280;60387;49.994;14.660;2023-01-28T04:43:01;98292.34;;;3.76;65.12
71915;BME280;60387;49.994;14.660;2023-01-28T04:45:34;98292.91;;;3.78;65.18
71915;BME280;60387;49.994;14.660;2023-01-28T04:48:08;98298.59;;;3.82;64.94
71915;BME280;60387;49.994;14.660;2023-01-28T04:50:41;98272.09;;;3.69;65.23
71915;BME280;60387;49.994;14.660;2023-01-28T04:53:15;98299.06;;;3.79;65.05
71915;BME280;60387;49.994;14.660;2023-01-28T04:55:48;98301.81;;;3.84;65.12
71915;BME280;60387;49.994;14.660;2023-01-28T04:58:22;98296.88;;;3.76;65.11
71915;BME280;60387;49.994;14.660;2023-01-28T05:00:57;98304.75;;;3.82;65.18
71915;BME280;60387;49.994;14.660;2023-01-28T05:03:31;98300.69;;;3.80;65.22
71915;BME280;60387;49.994;14.660;2023-01-28T05:06:05;98298.59;;;3.82;65.18
71915;BME280;60387;49.994;14.660;2023-01-28T05:08:38;98301.81;;;3.84;65.02
71915;BME280;60387;49.994;14.660;2023-01-28T05:11:12;98308.56;;;3.86;65.13
71915;BME280;60387;49.994;14.660;2023-01-28T05:13:45;98305.66;;;3.88;65.69
71915;BME280;60387;49.994;14.660;2023-01-28T05:16:18;98308.56;;;3.86;64.77
71915;BME280;60387;49.994;14.660;2023-01-28T05:18:52;98304.59;;;3.89;65.00
71915;BME280;60387;49.994;14.660;2023-01-28T05:21:25;98311.06;;;3.93;65.11
71915;BME280;60387;49.994;14.660;2023-01-28T05:23:59;98312.97;;;3.92;64.93
71915;BME280;60387;49.994;14.660;2023-01-28T05:26:32;98302.47;;;3.91;65.14
71915;BME280;60387;49.994;14.660;2023-01-28T05:29:05;98312.13;;;3.92;65.13
71915;BME280;60387;49.994;14.660;2023-01-28T05:31:38;98314.00;;;3.91;65.10
71915;BME280;60387;49.994;14.660;2023-01-28T05:34:12;98315.88;;;3.91;65.02
71915;BME280;60387;49.994;14.660;2023-01-28T05:36:45;98318.88;;;3.94;65.07
71915;BME280;60387;49.994;14.660;2023-01-28T05:39:18;98318.06;;;3.94;65.32
71915;BME280;60387;49.994;14.660;2023-01-28T05:41:52;98314.81;;;3.92;65.15
71915;BME280;60387;49.994;14.660;2023-01-28T05:44:25;98321.78;;;3.93;65.24
71915;BME280;60387;49.994;14.660;2023-01-28T05:46:58;98321.78;;;3.93;65.07
71915;BME280;60387;49.994;14.660;2023-01-28T05:49:31;98314.59;;;3.93;64.74
71915;BME280;60387;49.994;14.660;2023-01-28T05:52:05;98322.94;;;3.97;64.71
71915;BME280;60387;49.994;14.660;2023-01-28T05:54:38;98320.75;;;3.94;64.93
71915;BME280;60387;49.994;14.660;2023-01-28T05:57:11;98327.16;;;3.93;65.13
71915;BME280;60387;49.994;14.660;2023-01-28T05:59:45;98310.28;;;3.92;64.91
71915;BME280;60387;49.994;14.660;2023-01-28T06:02:18;98318.56;;;3.91;64.92
71915;BME280;60387;49.994;14.660;2023-01-28T06:04:51;98316.66;;;3.91;65.07
71915;BME280;60387;49.994;14.660;2023-01-28T06:07:25;98318.00;;;3.89;65.02
71915;BME280;60387;49.994;14.660;2023-01-28T06:09:58;98306.53;;;3.77;65.06
71915;BME280;60387;49.994;14.660;2023-01-28T06:12:31;98327.88;;;3.88;65.29
71915;BME280;60387;49.994;14.660;2023-01-28T06:15:05;98331.84;;;3.86;65.11
71915;BME280;60387;49.994;14.660;2023-01-28T06:17:39;98331.84;;;3.86;65.19
71915;BME280;60387;49.994;14.660;2023-01-28T06:20:12;98339.91;;;3.86;64.88
71915;BME280;60387;49.994;14.660;2023-01-28T06:22:45;98340.72;;;3.86;65.08
71915;BME280;60387;49.994;14.660;2023-01-28T06:25:19;98344.47;;;3.85;65.22
71915;BME280;60387;49.994;14.660;2023-01-28T06:27:53;98349.25;;;3.83;65.56
71915;BME280;60387;49.994;14.660;2023-01-28T06:30:26;98340.63;;;3.81;65.27
71915;BME280;60387;49.994;14.660;2023-01-28T06:32:59;98339.84;;;3.81;65.13
71915;BME280;60387;49.994;14.660;2023-01-28T06:35:32;98351.34;;;3.81;65.32
71915;BME280;60387;49.994;14.660;2023-01-28T06:38:07;98352.63;;;3.79;65.42
71915;BME280;60387;49.994;14.660;2023-01-28T06:40:40;98364.19;;;3.79;65.23
71915;BME280;60387;49.994;14.660;2023-01-28T06:43:14;98360.69;;;3.79;65.49
71915;BME280;60387;49.994;14.660;2023-01-28T06:45:47;98369.44;;;3.74;65.19
71915;BME280;60387;49.994;14.660;2023-01-28T06:48:20;98363.50;;;3.72;65.09
71915;BME280;60387;49.994;14.660;2023-01-28T06:50:54;98374.22;;;3.72;65.29
71915;BME280;60387;49.994;14.660;2023-01-28T06:53:27;98365.13;;;3.73;65.00
71915;BME280;60387;49.994;14.660;2023-01-28T06:56:00;98358.50;;;3.76;65.43
71915;BME280;60387;49.994;14.660;2023-01-28T06:58:34;98371.88;;;3.76;65.52
71915;BME280;60387;49.994;14.660;2023-01-28T07:01:07;98369.22;;;3.76;65.58
71915;BME280;60387;49.994;14.660;2023-01-28T07:03:40;98370.03;;;3.76;65.22
71915;BME280;60387;49.994;14.660;2023-01-28T07:06:14;98373.19;;;3.73;65.17
71915;BME280;60387;49.994;14.660;2023-01-28T07:08:47;98375.78;;;3.68;64.94
71915;BME280;60387;49.994;14.660;2023-01-28T07:11:20;98380.56;;;3.66;65.22
71915;BME280;60387;49.994;14.660;2023-01-28T07:13:54;98375.34;;;3.60;64.67
71915;BME280;60387;49.994;14.660;2023-01-28T07:16:27;98383.00;;;3.68;64.56
71915;BME280;60387;49.994;14.660;2023-01-28T07:19:00;98388.34;;;3.68;65.00
71915;BME280;60387;49.994;14.660;2023-01-28T07:21:34;98398.59;;;3.71;64.74
71915;BME280;60387;49.994;14.660;2023-01-28T07:24:07;98388.47;;;3.73;64.65
71915;BME280;60387;49.994;14.660;2023-01-28T07:26:40;98391.59;;;3.70;65.14
71915;BME280;60387;49.994;14.660;2023-01-28T07:29:14;98394.94;;;3.77;65.15
71915;BME280;60387;49.994;14.660;2023-01-28T07:31:47;98391.22;;;3.78;65.00
71915;BME280;60387;49.994;14.660;2023-01-28T07:34:20;98397.16;;;3.80;64.36
71915;BME280;60387;49.994;14.660;2023-01-28T07:36:53;98402.53;;;3.80;64.87
71915;BME280;60387;49.994;14.660;2023-01-28T07:39:27;98397.16;;;3.80;65.08
71915;BME280;60387;49.994;14.660;2023-01-28T07:42:00;98408.44;;;3.82;64.86
71915;BME280;60387;49.994;14.660;2023-01-28T07:44:34;98397.56;;;3.72;64.57
71915;BME280;60387;49.994;14.660;2023-01-28T07:47:08;98415.31;;;3.78;64.39
71915;BME280;60387;49.994;14.660;2023-01-28T07:49:42;98409.97;;;3.78;64.37
71915;BME280;60387;49.994;14.660;2023-01-28T07:52:15;98413.13;;;3.75;64.56
71915;BME280;60387;49.994;14.660;2023-01-28T07:54:48;98404.75;;;3.71;64.32
71915;BME280;60387;49.994;14.660;2023-01-28T07:57:21;98398.28;;;3.67;64.46
71915;BME280;60387;49.994;14.660;2023-01-28T07:59:55;98410.94;;;3.72;64.38
71915;BME280;60387;49.994;14.660;2023-01-28T08:02:28;98418.50;;;3.75;64.34
71915;BME280;60387;49.994;14.660;2023-01-28T08:05:01;98422.13;;;3.69;64.50
71915;BME280;60387;49.994;14.660;2023-01-28T08:07:35;98429.19;;;3.75;64.60
71915;BME280;60387;49.994;14.660;2023-01-28T08:10:10;98428.16;;;3.76;64.57
71915;BME280;60387;49.994;14.660;2023-01-28T08:12:57;98435.38;;;3.75;64.55
71915;BME280;60387;49.994;14.660;2023-01-28T08:15:30;98439.69;;;3.76;64.45
71915;BME280;60387;49.994;14.660;2023-01-28T08:18:05;98444.22;;;3.76;64.23
71915;BME280;60387;49.994;14.660;2023-01-28T08:20:40;98436.41;;;3.74;64.20
71915;BME280;60387;49.994;14.660;2023-01-28T08:23:16;98424.72;;;3.64;63.95
71915;BME280;60387;49.994;14.660;2023-01-28T08:25:49;98440.59;;;3.54;64.00
71915;BME280;60387;49.994;14.660;2023-01-28T08:28:23;98453.69;;;3.39;63.96
71915;BME280;60387;49.994;14.660;2023-01-28T08:30:58;98453.16;;;3.53;64.16
71915;BME280;60387;49.994;14.660;2023-01-28T08:33:32;98444.94;;;3.43;63.76
71915;BME280;60387;49.994;14.660;2023-01-28T08:36:05;98454.16;;;3.36;64.11
71915;BME280;60387;49.994;14.660;2023-01-28T08:38:39;98456.13;;;3.40;63.97
71915;BME280;60387;49.994;14.660;2023-01-28T08:41:12;98453.22;;;3.42;64.15
71915;BME280;60387;49.994;14.660;2023-01-28T08:43:46;98460.75;;;3.45;64.15
71915;BME280;60387;49.994;14.660;2023-01-28T08:46:19;98456.94;;;3.41;64.08
71915;BME280;60387;49.994;14.660;2023-01-28T08:48:52;98455.31;;;3.40;64.16
71915;BME280;60387;49.994;14.660;2023-01-28T08:51:25;98460.53;;;3.46;64.16
71915;BME280;60387;49.994;14.660;2023-01-28T08:53:59;98471.88;;;3.37;64.08
71915;BME280;60387;49.994;14.660;2023-01-28T08:56:32;98470.09;;;3.42;63.70
71915;BME280;60387;49.994;14.660;2023-01-28T08:59:05;98480.31;;;3.45;64.02
71915;BME280;60387;49.994;14.660;2023-01-28T09:01:39;98473.13;;;3.46;63.42
71915;BME280;60387;49.994;14.660;2023-01-28T09:04:12;98472.19;;;3.40;63.49
71915;BME280;60387;49.994;14.660;2023-01-28T09:06:46;98469.28;;;3.42;63.72
71915;BME280;60387;49.994;14.660;2023-01-28T09:09:19;98476.94;;;3.50;63.57
71915;BME280;60387;49.994;14.660;2023-01-28T09:11:52;98478.34;;;3.41;63.46
71915;BME280;60387;49.994;14.660;2023-01-28T09:14:26;98476.97;;;3.38;63.25
71915;BME280;60387;49.994;14.660;2023-01-28T09:16:59;98486.41;;;3.41;63.09
71915;BME280;60387;49.994;14.660;2023-01-28T09:19:32;98488.00;;;3.42;63.23
71915;BME280;60387;49.994;14.660;2023-01-28T09:22:05;98487.06;;;3.48;63.69
71915;BME280;60387;49.994;14.660;2023-01-28T09:24:39;98488.69;;;3.49;63.44
71915;BME280;60387;49.994;14.660;2023-01-28T09:27:12;98485.47;;;3.47;62.85
71915;BME280;60387;49.994;14.660;2023-01-28T09:29:45;98488.47;;;3.50;62.89
71915;BME280;60387;49.994;14.660;2023-01-28T09:32:19;98494.88;;;3.49;62.97
71915;BME280;60387;49.994;14.660;2023-01-28T09:34:52;98503.59;;;3.45;62.52
71915;BME280;60387;49.994;14.660;2023-01-28T09:37:25;98503.03;;;3.43;62.67
71915;BME280;60387;49.994;14.660;2023-01-28T09:39:58;98498.84;;;3.47;62.96
71915;BME280;60387;49.994;14.660;2023-01-28T09:45:37;98502.78;;;3.56;63.12
71915;BME280;60387;49.994;14.660;2023-01-28T09:48:16;98503.69;;;3.61;63.17
71915;BME280;60387;49.994;14.660;2023-01-28T09:50:52;98504.16;;;3.58;62.84
71915;BME280;60387;49.994;14.660;2023-01-28T09:53:31;98514.97;;;3.63;62.98
71915;BME280;60387;49.994;14.660;2023-01-28T09:56:12;98504.75;;;3.60;63.09
71915;BME280;60387;49.994;14.660;2023-01-28T09:58:47;98503.91;;;3.60;62.84
71915;BME280;60387;49.994;14.660;2023-01-28T10:06:49;98511.16;;;3.59;62.53
71915;BME280;60387;49.994;14.660;2023-01-28T10:17:53;98494.16;;;3.54;62.61
71915;BME280;60387;49.994;14.660;2023-01-28T10:20:36;98510.69;;;3.51;62.60
71915;BME280;60387;49.994;14.660;2023-01-28T10:23:37;98508.59;;;3.53;62.48
71915;BME280;60387;49.994;14.660;2023-01-28T10:26:22;98509.56;;;3.47;62.41
71915;BME280;60387;49.994;14.660;2023-01-28T10:28:59;98501.16;;;3.55;62.77
71915;BME280;60387;49.994;14.660;2023-01-28T10:31:40;98502.78;;;3.56;62.57
71915;BME280;60387;49.994;14.660;2023-01-28T10:34:16;98511.94;;;3.60;62.48
71915;BME280;60387;49.994;14.660;2023-01-28T10:36:49;98510.91;;;3.61;62.69
71915;BME280;60387;49.994;14.660;2023-01-28T10:39:24;98516.94;;;3.68;62.10
71915;BME280;60387;49.994;14.660;2023-01-28T10:41:58;98510.78;;;3.67;62.34
71915;BME280;60387;49.994;14.660;2023-01-28T10:44:34;98513.19;;;3.69;62.46
71915;BME280;60387;49.994;14.660;2023-01-28T10:47:16;98524.06;;;3.62;62.33
71915;BME280;60387;49.994;14.660;2023-01-28T10:49:55;98517.88;;;3.62;62.77
71915;BME280;60387;49.994;14.660;2023-01-28T10:52:30;98510.09;;;3.60;62.23
71915;BME280;60387;49.994;14.660;2023-01-28T10:55:05;98522.56;;;3.66;62.34
71915;BME280;60387;49.994;14.660;2023-01-28T10:57:41;98509.03;;;3.61;62.32
71915;BME280;60387;49.994;14.660;2023-01-28T11:02:56;98519.03;;;3.66;62.63
71915;BME280;60387;49.994;14.660;2023-01-28T11:05:30;98518.81;;;3.67;62.09
71915;BME280;60387;49.994;14.660;2023-01-28T11:08:15;98521.84;;;3.71;62.26
71915;BME280;60387;49.994;14.660;2023-01-28T11:10:49;98527.19;;;3.71;62.29
71915;BME280;60387;49.994;14.660;2023-01-28T11:16:12;98523.22;;;3.62;61.95
71915;BME280;60387;49.994;14.660;2023-01-28T11:18:53;98528.13;;;3.65;61.86
71915;BME280;60387;49.994;14.660;2023-01-28T11:21:28;98529.06;;;3.59;61.64
71915;BME280;60387;49.994;14.660;2023-01-28T11:24:06;98525.47;;;3.53;61.71
71915;BME280;60387;49.994;14.660;2023-01-28T11:26:52;98527.94;;;3.55;62.05
71915;BME280;60387;49.994;14.660;2023-01-28T11:29:30;98518.16;;;3.49;62.04
71915;BME280;60387;49.994;14.660;2023-01-28T11:32:03;98519.22;;;3.48;62.45
71915;BME280;60387;49.994;14.660;2023-01-28T11:34:47;98526.19;;;3.49;62.19
71915;BME280;60387;49.994;14.660;2023-01-28T11:37:23;98530.28;;;3.51;62.01
71915;BME280;60387;49.994;14.660;2023-01-28T11:40:17;98529.44;;;3.51;61.94
71915;BME280;60387;49.994;14.660;2023-01-28T11:42:52;98526.06;;;3.44;62.26
71915;BME280;60387;49.994;14.660;2023-01-28T11:45:40;98541.78;;;3.52;61.89
71915;BME280;60387;49.994;14.660;2023-01-28T11:48:27;98530.16;;;3.46;62.11
71915;BME280;60387;49.994;14.660;2023-01-28T11:54:21;98537.13;;;3.47;61.74
71915;BME280;60387;49.994;14.660;2023-01-28T11:57:10;98536.34;;;3.47;61.33
71915;BME280;60387;49.994;14.660;2023-01-28T12:05:33;98538.13;;;3.30;61.69
71915;BME280;60387;49.994;14.660;2023-01-28T12:08:23;98535.53;;;3.35;61.39
71915;BME280;60387;49.994;14.660;2023-01-28T12:13:51;98532.97;;;3.28;61.25
71915;BME280;60387;49.994;14.660;2023-01-28T12:16:40;98534.38;;;3.31;61.54
71915;BME280;60387;49.994;14.660;2023-01-28T12:35:40;98530.53;;;3.27;61.10
71915;BME280;60387;49.994;14.660;2023-01-28T12:41:25;98532.06;;;3.23;60.79
71915;BME280;60387;49.994;14.660;2023-01-28T12:44:03;98533.56;;;3.19;61.39
71915;BME280;60387;49.994;14.660;2023-01-28T12:46:48;98537.28;;;3.18;61.18
71915;BME280;60387;49.994;14.660;2023-01-28T12:49:29;98539.53;;;3.21;61.00
71915;BME280;60387;49.994;14.660;2023-01-28T12:52:20;98529.03;;;3.19;61.45
71915;BME280;60387;49.994;14.660;2023-01-28T12:55:15;98539.63;;;3.26;61.13
71915;BME280;60387;49.994;14.660;2023-01-28T12:57:50;98542.28;;;3.26;60.99
71915;BME280;60387;49.994;14.660;2023-01-28T13:00:36;98548.81;;;3.30;60.94
71915;BME280;60387;49.994;14.660;2023-01-28T13:05:53;98521.72;;;3.15;61.03
71915;BME280;60387;49.994;14.660;2023-01-28T13:08:29;98538.69;;;3.32;60.94
71915;BME280;60387;49.994;14.660;2023-01-28T13:11:03;98546.16;;;3.30;60.88
71915;BME280;60387;49.994;14.660;2023-01-28T13:13:39;98539.16;;;3.29;60.46
71915;BME280;60387;49.994;14.660;2023-01-28T13:16:13;98547.06;;;3.24;60.00
71915;BME280;60387;49.994;14.660;2023-01-28T13:18:46;98546.72;;;3.20;59.76
71915;BME280;60387;49.994;14.660;2023-01-28T13:26:51;98547.06;;;3.12;59.75
71915;BME280;60387;49.994;14.660;2023-01-28T13:29:29;98555.09;;;3.12;59.51
71915;BME280;60387;49.994;14.660;2023-01-28T13:32:33;98553.13;;;3.08;59.50
71915;BME280;60387;49.994;14.660;2023-01-28T13:35:29;98550.22;;;2.98;59.10
71915;BME280;60387;49.994;14.660;2023-01-28T13:38:29;98559.53;;;2.96;58.93
71915;BME280;60387;49.994;14.660;2023-01-28T13:41:02;98544.06;;;2.86;58.86
71915;BME280;60387;49.994;14.660;2023-01-28T13:43:38;98562.09;;;2.91;59.04
71915;BME280;60387;49.994;14.660;2023-01-28T13:46:26;98561.50;;;2.89;59.87
71915;BME280;60387;49.994;14.660;2023-01-28T13:49:00;98556.28;;;2.94;59.33
71915;BME280;60387;49.994;14.660;2023-01-28T13:51:34;98550.56;;;2.90;58.58
71915;BME280;60387;49.994;14.660;2023-01-28T13:54:20;98566.41;;;2.92;58.95
71915;BME280;60387;49.994;14.660;2023-01-28T13:59:39;98559.66;;;2.89;58.78
71915;BME280;60387;49.994;14.660;2023-01-28T14:14:19;98575.91;;;2.76;58.68
71915;BME280;60387;49.994;14.660;2023-01-28T14:17:11;98583.56;;;2.73;58.22
71915;BME280;60387;49.994;14.660;2023-01-28T14:19:49;98590.44;;;2.69;58.29
71915;BME280;60387;49.994;14.660;2023-01-28T14:22:24;98589.63;;;2.68;58.40
71915;BME280;60387;49.994;14.660;2023-01-28T14:24:59;98586.25;;;2.61;58.23
71915;BME280;60387;49.994;14.660;2023-01-28T14:27:39;98592.66;;;2.60;58.01
71915;BME280;60387;49.994;14.660;2023-01-28T14:33:09;98595.19;;;2.55;58.17
71915;BME280;60387;49.994;14.660;2023-01-28T14:35:45;98613.31;;;2.53;58.17
71915;BME280;60387;49.994;14.660;2023-01-28T14:38:21;98608.50;;;2.44;58.26
71915;BME280;60387;49.994;14.660;2023-01-28T14:40:56;98615.63;;;2.50;58.51
71915;BME280;60387;49.994;14.660;2023-01-28T14:43:30;98611.19;;;2.44;58.37
71915;BME280;60387;49.994;14.660;2023-01-28T14:49:34;98616.31;;;2.45;58.22
71915;BME280;60387;49.994;14.660;2023-01-28T14:55:13;98616.75;;;2.42;57.94
71915;BME280;60387;49.994;14.660;2023-01-28T14:58:00;98617.22;;;2.39;58.17
71915;BME280;60387;49.994;14.660;2023-01-28T15:00:35;98611.72;;;2.34;57.40
71915;BME280;60387;49.994;14.660;2023-01-28T15:03:17;98611.81;;;2.28;57.35
71915;BME280;60387;49.994;14.660;2023-01-28T15:08:37;98620.25;;;2.13;58.04
71915;BME280;60387;49.994;14.660;2023-01-28T15:11:14;98641.31;;;2.21;57.37
71915;BME280;60387;49.994;14.660;2023-01-28T15:13:50;98637.44;;;2.17;57.56
71915;BME280;60387;49.994;14.660;2023-01-28T15:16:26;98642.78;;;2.17;57.95
71915;BME280;60387;49.994;14.660;2023-01-28T15:19:00;98644.88;;;2.15;58.10
71915;BME280;60387;49.994;14.660;2023-01-28T15:21:34;98650.69;;;2.12;57.37
71915;BME280;60387;49.994;14.660;2023-01-28T15:24:11;98648.22;;;2.11;57.44
71915;BME280;60387;49.994;14.660;2023-01-28T15:26:46;98656.13;;;2.06;57.43